Terminal Aerodrome Forecast
Issued by NWS

Home | Current Version | Previous Version | Text Only | Print | Product List | Glossary On
Versions: 1 2 3 4 5 6 7 8 9 10 11 12 13 14 15 16
822
FTUS42 KMLB 102027 AAA
TAFTIX
TAF AMD
KTIX 102027Z 1020/1118 29023G33KT P6SM SKC
     FM110100 31006KT P6SM SKC=

USA.gov is the U.S. government's official web portal to all federal, state and local government web resources and services.